Time;durP1;ratioP1;P1;durP2;ratioP2;P2;SDS_P1;SDS_P2;PMS_P1;PMS_P2;Temp;Humidity;BMP_temperature;BMP_pressure;BME280_temperature;BME280_humidity;BME280_pressure;Samples;Min_cycle;Max_cycle;Signal;HPM_P1;HPM_P2
2021/06/28 00:01:32;;;;;;;2.30;2.13;;;23.20;66.30;;;;;;5014267;28;20034;-48
2021/06/28 00:03:58;;;;;;;2.55;2.35;;;23.20;66.90;;;;;;5028006;28;20140;-45
2021/06/28 00:06:24;;;;;;;2.25;2.10;;;23.20;66.80;;;;;;5033933;28;20061;-45
2021/06/28 00:08:49;;;;;;;2.22;2.13;;;23.20;66.80;;;;;;5034186;28;20219;-46
2021/06/28 00:11:15;;;;;;;3.30;2.35;;;23.20;66.90;;;;;;5034181;28;20033;-47
2021/06/28 00:13:43;;;;;;;2.28;2.13;;;23.20;67.50;;;;;;5033835;28;20053;-46
2021/06/28 00:16:10;;;;;;;2.38;2.20;;;23.30;66.90;;;;;;5034059;28;20029;-46
2021/06/28 00:18:35;;;;;;;3.00;2.30;;;23.20;66.80;;;;;;5033685;28;20018;-45
2021/06/28 00:21:02;;;;;;;1.95;1.85;;;23.20;66.80;;;;;;5033861;28;20033;-45
2021/06/28 00:23:28;;;;;;;4.00;2.13;;;;;;;;;;5033862;28;20053;-46
2021/06/28 00:25:54;;;;;;;3.95;2.20;;;23.10;66.20;;;;;;5033078;28;20025;-45
2021/06/28 00:28:21;;;;;;;2.20;2.10;;;23.20;66.90;;;;;;5033786;28;20466;-48
2021/06/28 00:30:48;;;;;;;2.10;2.00;;;23.20;66.80;;;;;;5033793;28;20025;-45
2021/06/28 00:33:16;;;;;;;2.53;2.35;;;23.10;66.80;;;;;;5033778;28;20013;-46
2021/06/28 00:35:43;;;;;;;2.08;1.88;;;23.10;66.80;;;;;;5033530;28;20100;-45
2021/06/28 00:38:10;;;;;;;2.20;2.03;;;23.20;66.80;;;;;;5033763;28;20083;-46
2021/06/28 00:40:37;;;;;;;2.50;2.30;;;23.10;66.80;;;;;;5033400;28;20021;-45
2021/06/28 00:43:04;;;;;;;2.17;1.98;;;23.20;66.90;;;;;;5033426;28;20125;-45
2021/06/28 00:45:32;;;;;;;1.83;1.73;;;23.10;66.80;;;;;;5033317;28;20048;-45
2021/06/28 00:48:04;;;;;;;2.10;2.00;;;23.10;66.80;;;;;;5033270;28;20155;-47
2021/06/28 00:50:31;;;;;;;2.15;1.98;;;23.10;66.80;;;;;;5033300;28;20021;-47
2021/06/28 00:52:59;;;;;;;2.35;2.15;;;23.10;66.80;;;;;;5033261;28;20030;-45
2021/06/28 00:55:26;;;;;;;2.28;2.08;;;23.10;66.80;;;;;;5033492;28;20068;-44
2021/06/28 00:57:52;;;;;;;2.42;2.22;;;23.10;66.80;;;;;;5033478;28;20053;-48
2021/06/28 01:00:18;;;;;;;2.53;2.33;;;23.10;66.80;;;;;;5033436;28;20029;-45
2021/06/28 01:02:44;;;;;;;2.30;2.10;;;23.10;66.80;;;;;;5032899;28;20040;-45
2021/06/28 01:05:19;;;;;;;2.10;2.00;;;23.10;66.80;;;;;;5032922;28;20045;-45
2021/06/28 01:07:45;;;;;;;2.33;2.13;;;23.10;66.80;;;;;;5033015;28;20476;-46
2021/06/28 01:10:12;;;;;;;2.90;2.35;;;23.10;66.80;;;;;;5033174;28;20028;-45
2021/06/28 01:12:38;;;;;;;2.55;2.35;;;23.10;66.80;;;;;;5033261;28;20036;-46
2021/06/28 01:15:04;;;;;;;2.50;2.30;;;23.10;66.80;;;;;;5033114;28;20112;-46
2021/06/28 01:17:30;;;;;;;2.58;2.38;;;23.10;66.90;;;;;;5033163;28;20436;-45
2021/06/28 01:20:09;;;;;;;2.05;1.90;;;23.10;66.90;;;;;;5033124;28;20105;-46
2021/06/28 01:22:39;;;;;;;2.08;1.98;;;23.10;66.90;;;;;;5032916;28;20037;-45
2021/06/28 01:25:08;;;;;;;2.38;2.17;;;23.10;66.90;;;;;;5032853;28;20071;-46
2021/06/28 01:27:34;;;;;;;3.85;2.50;;;23.10;66.90;;;;;;5033058;28;20049;-47
2021/06/28 01:30:00;;;;;;;2.35;2.15;;;23.00;66.80;;;;;;5033024;28;20417;-45
2021/06/28 01:32:26;;;;;;;2.83;1.90;;;23.10;66.90;;;;;;5032672;28;20112;-45
2021/06/28 01:34:53;;;;;;;2.13;2.03;;;23.10;66.90;;;;;;5032592;28;20025;-45
2021/06/28 01:37:18;;;;;;;2.40;2.20;;;23.10;66.90;;;;;;5035424;28;20129;-46
2021/06/28 01:39:44;;;;;;;2.42;2.25;;;23.10;66.90;;;;;;5037047;28;20053;-45
2021/06/28 01:42:10;;;;;;;2.15;1.98;;;23.10;66.90;;;;;;5036683;28;20037;-45
2021/06/28 01:44:35;;;;;;;2.22;2.13;;;23.10;67.00;;;;;;5036643;28;20034;-47
2021/06/28 01:47:01;;;;;;;1.90;1.80;;;23.10;67.00;;;;;;5036563;28;20046;-45
2021/06/28 01:49:27;;;;;;;2.00;1.90;;;23.10;66.90;;;;;;5036569;28;20013;-45
2021/06/28 01:51:53;;;;;;;2.20;2.00;;;23.00;66.80;;;;;;5036729;28;20075;-45
2021/06/28 01:54:18;;;;;;;2.40;2.20;;;23.00;66.80;;;;;;5036764;28;20025;-45
2021/06/28 01:56:44;;;;;;;2.10;2.00;;;;;;;;;;5036737;28;20025;-46
2021/06/28 01:59:10;;;;;;;3.72;2.17;;;23.00;66.30;;;;;;5036649;28;20030;-46
2021/06/28 02:01:36;;;;;;;2.30;2.20;;;23.30;67.00;;;;;;5036213;28;20034;-45
2021/06/28 02:04:01;;;;;;;1.95;1.85;;;23.00;66.80;;;;;;5036229;28;20103;-46
2021/06/28 02:06:27;;;;;;;2.17;2.00;;;23.00;66.90;;;;;;5036527;28;20096;-45
2021/06/28 02:08:52;;;;;;;2.28;1.98;;;23.10;66.90;;;;;;5036551;28;20049;-46
2021/06/28 02:11:18;;;;;;;2.30;2.10;;;23.00;66.90;;;;;;5036408;28;20014;-45
2021/06/28 02:13:43;;;;;;;2.85;2.05;;;23.00;66.80;;;;;;5036368;28;20475;-45
2021/06/28 02:16:09;;;;;;;1.98;1.80;;;23.10;66.90;;;;;;5036385;28;20013;-45
2021/06/28 02:18:35;;;;;;;1.92;1.83;;;23.00;66.80;;;;;;5036070;28;20029;-45
2021/06/28 02:21:01;;;;;;;2.05;1.80;;;23.00;66.80;;;;;;5036221;28;20045;-46
2021/06/28 02:23:31;;;;;;;2.03;1.90;;;23.00;66.80;;;;;;5035904;28;20022;-46
2021/06/28 02:26:01;;;;;;;2.35;2.15;;;23.00;66.80;;;;;;5035911;28;20029;-45
2021/06/28 02:28:29;;;;;;;2.35;2.25;;;23.20;67.00;;;;;;5036231;28;20044;-45
2021/06/28 02:30:56;;;;;;;2.10;2.00;;;23.20;67.00;;;;;;5035846;28;20104;-47
2021/06/28 02:33:22;;;;;;;1.92;1.73;;;23.00;66.80;;;;;;5036038;28;20411;-45
2021/06/28 02:35:49;;;;;;;2.00;1.90;;;23.10;66.90;;;;;;5035723;28;20029;-45
2021/06/28 02:38:16;;;;;;;2.20;1.90;;;23.20;66.90;;;;;;5036012;28;20049;-45
2021/06/28 02:40:42;;;;;;;2.05;1.85;;;23.00;66.80;;;;;;5035926;28;20032;-46
2021/06/28 02:43:07;;;;;;;2.47;2.28;;;23.00;66.80;;;;;;5035731;28;20112;-46
2021/06/28 02:45:33;;;;;;;2.45;1.77;;;22.90;66.70;;;;;;5035863;28;20022;-45
2021/06/28 02:47:59;;;;;;;2.00;1.83;;;23.00;66.80;;;;;;5034942;28;20099;-45
2021/06/28 02:50:24;;;;;;;2.17;1.98;;;23.00;66.80;;;;;;5035716;28;20107;-45
2021/06/28 02:52:50;;;;;;;2.20;2.00;;;22.90;66.70;;;;;;5035676;28;20045;-46
2021/06/28 02:55:16;;;;;;;2.10;2.00;;;23.00;67.40;;;;;;5035689;28;20064;-47
2021/06/28 02:57:41;;;;;;;2.13;1.85;;;23.00;67.40;;;;;;5035342;28;20480;-45
2021/06/28 03:00:10;;;;;;;2.17;1.90;;;22.90;66.70;;;;;;5035587;28;20021;-45
2021/06/28 03:02:36;;;;;;;2.08;1.88;;;22.90;66.70;;;;;;5035063;28;20033;-45
2021/06/28 03:05:04;;;;;;;2.30;2.10;;;22.90;66.80;;;;;;5035041;28;20056;-46
2021/06/28 03:07:30;;;;;;;2.40;2.10;;;22.90;66.70;;;;;;5035437;28;20025;-46
2021/06/28 03:09:56;;;;;;;1.77;1.67;;;22.90;66.70;;;;;;5035346;28;20087;-44
2021/06/28 03:12:21;;;;;;;1.95;1.85;;;22.90;66.80;;;;;;5035363;28;20029;-45
2021/06/28 03:14:47;;;;;;;2.20;2.10;;;23.00;66.80;;;;;;5034999;28;20491;-45
2021/06/28 03:17:12;;;;;;;2.55;1.83;;;22.90;66.60;;;;;;5034049;28;20035;-45
2021/06/28 03:19:38;;;;;;;1.90;1.80;;;22.90;66.60;;;;;;5035195;28;20363;-46
2021/06/28 03:22:04;;;;;;;2.20;2.10;;;23.00;66.70;;;;;;5035090;28;20041;-45
2021/06/28 03:24:29;;;;;;;2.08;1.98;;;22.90;66.70;;;;;;5035131;28;20100;-45
2021/06/28 03:26:55;;;;;;;2.80;1.98;;;22.90;66.70;;;;;;5035117;28;20099;-45
2021/06/28 03:29:21;;;;;;;2.03;1.92;;;23.00;66.70;;;;;;5035116;28;20025;-45
2021/06/28 03:31:46;;;;;;;3.17;2.25;;;22.90;66.80;;;;;;5035323;28;20044;-45
2021/06/28 03:34:12;;;;;;;2.10;2.00;;;22.90;66.70;;;;;;5034782;28;20025;-45
2021/06/28 03:36:37;;;;;;;2.33;2.13;;;22.90;66.80;;;;;;5034913;28;20068;-45
2021/06/28 03:39:03;;;;;;;2.10;2.00;;;22.90;66.80;;;;;;5034898;28;20018;-46
2021/06/28 03:41:29;;;;;;;2.28;2.10;;;22.90;66.80;;;;;;5034733;28;20083;-45
2021/06/28 03:43:55;;;;;;;2.17;1.90;;;22.90;66.80;;;;;;5034419;28;20030;-45
2021/06/28 03:46:20;;;;;;;2.00;1.90;;;22.90;66.70;;;;;;5034497;28;20030;-45
2021/06/28 03:48:46;;;;;;;2.10;2.00;;;23.00;66.90;;;;;;5034691;28;20026;-46
2021/06/28 03:51:12;;;;;;;1.73;1.63;;;22.90;66.80;;;;;;5034622;28;20017;-46
2021/06/28 03:53:38;;;;;;;2.20;2.00;;;22.90;66.70;;;;;;5034294;28;20396;-45
2021/06/28 03:56:07;;;;;;;2.45;1.92;;;23.00;66.70;;;;;;5034520;28;20029;-45
2021/06/28 03:58:37;;;;;;;2.08;1.98;;;22.80;66.70;;;;;;5034491;28;20032;-46
2021/06/28 04:01:03;;;;;;;1.98;1.88;;;22.90;66.80;;;;;;5034341;28;20021;-47
2021/06/28 04:03:31;;;;;;;2.30;2.10;;;22.90;66.80;;;;;;5033852;28;20388;-45
2021/06/28 04:06:00;;;;;;;1.88;1.77;;;23.10;67.00;;;;;;5034344;28;20021;-46
2021/06/28 04:08:25;;;;;;;1.50;1.40;;;23.00;66.90;;;;;;5034092;28;20033;-45
2021/06/28 04:10:52;;;;;;;2.00;1.90;;;22.90;66.80;;;;;;5034229;28;20013;-45
2021/06/28 04:13:18;;;;;;;2.00;1.90;;;22.80;66.70;;;;;;5033911;28;20484;-45
2021/06/28 04:15:44;;;;;;;1.80;1.70;;;22.80;66.70;;;;;;5033883;28;20037;-45
2021/06/28 04:18:10;;;;;;;2.42;2.22;;;22.80;66.80;;;;;;5034056;28;20017;-45
2021/06/28 04:20:35;;;;;;;2.60;2.20;;;22.80;66.80;;;;;;5034110;28;20113;-45
2021/06/28 04:23:01;;;;;;;1.92;1.83;;;22.80;67.40;;;;;;5033589;28;20087;-45
2021/06/28 04:25:27;;;;;;;2.05;1.95;;;22.70;66.70;;;;;;5033907;28;20025;-45
2021/06/28 04:27:52;;;;;;;2.20;2.10;;;22.90;67.00;;;;;;5033912;28;20017;-46
2021/06/28 04:30:19;;;;;;;2.00;1.90;;;22.80;66.80;;;;;;5033585;28;20029;-45
2021/06/28 04:32:47;;;;;;;2.22;2.13;;;22.80;66.70;;;;;;5032285;28;20028;-45
2021/06/28 04:35:23;;;;;;;2.38;2.17;;;22.80;66.90;;;;;;5033533;28;20068;-45
2021/06/28 04:37:49;;;;;;;2.22;2.00;;;22.80;66.80;;;;;;5033447;28;20025;-45
2021/06/28 04:40:18;;;;;;;2.83;2.00;;;22.80;66.80;;;;;;5033458;28;20023;-46
2021/06/28 04:42:45;;;;;;;1.85;1.75;;;22.80;66.90;;;;;;5033599;28;20384;-46
2021/06/28 04:45:12;;;;;;;2.35;2.17;;;22.80;66.80;;;;;;5033800;28;20415;-45
2021/06/28 04:47:38;;;;;;;2.00;1.90;;;22.80;66.90;;;;;;5033351;28;20052;-45
2021/06/28 04:50:05;;;;;;;1.88;1.77;;;22.80;66.80;;;;;;5033379;28;20060;-47
2021/06/28 04:52:32;;;;;;;2.25;2.05;;;22.80;66.80;;;;;;5033618;28;20026;-46
2021/06/28 04:54:58;;;;;;;2.20;2.10;;;22.80;66.80;;;;;;5033398;28;20022;-45
2021/06/28 04:57:24;;;;;;;2.95;1.80;;;22.80;66.70;;;;;;5033197;28;20028;-45
2021/06/28 04:59:49;;;;;;;1.85;1.75;;;22.90;66.80;;;;;;5033454;28;20018;-47
2021/06/28 05:02:15;;;;;;;1.95;1.85;;;22.80;66.60;;;;;;5033292;28;20030;-47
2021/06/28 05:04:41;;;;;;;2.05;1.92;;;23.00;66.80;;;;;;5033112;28;20037;-45
2021/06/28 05:07:06;;;;;;;2.08;1.77;;;22.80;66.70;;;;;;5033311;28;20071;-46
2021/06/28 05:09:32;;;;;;;1.80;1.70;;;22.80;66.60;;;;;;5032998;28;20026;-46
2021/06/28 05:11:58;;;;;;;1.90;1.80;;;22.90;66.60;;;;;;5032576;28;20112;-46
2021/06/28 05:14:24;;;;;;;1.83;1.73;;;22.90;66.60;;;;;;5032913;28;20017;-45
2021/06/28 05:16:50;;;;;;;1.95;1.83;;;22.80;66.40;;;;;;5031630;28;20032;-46
2021/06/28 05:19:16;;;;;;;2.45;2.25;;;22.90;66.30;;;;;;5031690;28;20384;-45
2021/06/28 05:21:41;;;;;;;1.90;1.80;;;22.80;66.30;;;;;;5032952;28;20033;-47
2021/06/28 05:24:07;;;;;;;1.85;1.75;;;22.90;66.30;;;;;;5033085;28;20056;-44
2021/06/28 05:26:33;;;;;;;2.00;1.90;;;22.80;66.30;;;;;;5032993;28;20025;-45
2021/06/28 05:28:59;;;;;;;2.10;1.90;;;22.80;66.30;;;;;;5032752;28;20472;-45
2021/06/28 05:31:27;;;;;;;2.20;2.00;;;22.90;66.40;;;;;;5033093;28;20051;-46
2021/06/28 05:33:53;;;;;;;1.98;1.88;;;22.80;66.40;;;;;;5033001;28;20074;-45
2021/06/28 05:36:22;;;;;;;2.55;1.95;;;22.90;66.80;;;;;;5032814;28;20029;-45
2021/06/28 05:38:47;;;;;;;2.10;2.00;;;22.90;66.90;;;;;;5031437;28;20499;-45
2021/06/28 05:41:16;;;;;;;2.25;1.95;;;22.80;67.20;;;;;;5032828;28;20025;-45
2021/06/28 05:43:41;;;;;;;1.98;1.88;;;23.00;67.00;;;;;;5032943;28;20036;-48
2021/06/28 05:46:07;;;;;;;2.10;2.00;;;22.80;66.50;;;;;;5032821;28;20376;-45
2021/06/28 05:48:32;;;;;;;3.47;2.17;;;22.80;66.30;;;;;;5032872;28;20049;-45
2021/06/28 05:50:58;;;;;;;8.02;2.15;;;23.10;66.40;;;;;;5032448;28;20029;-45
2021/06/28 05:53:24;;;;;;;2.17;1.98;;;22.90;66.50;;;;;;5032773;28;20073;-45
2021/06/28 05:55:51;;;;;;;2.13;2.00;;;22.90;66.60;;;;;;5032803;28;20104;-45
2021/06/28 05:58:17;;;;;;;7.72;2.05;;;22.90;66.80;;;;;;5032406;28;20041;-45
2021/06/28 06:00:43;;;;;;;2.20;2.08;;;22.90;66.90;;;;;;5032597;28;20095;-45
2021/06/28 06:03:09;;;;;;;3.50;1.80;;;22.90;67.00;;;;;;5032169;28;20120;-44
2021/06/28 06:05:34;;;;;;;2.85;1.80;;;22.90;66.90;;;;;;5032624;28;20524;-45
2021/06/28 06:08:00;;;;;;;2.17;1.98;;;22.90;66.70;;;;;;5032563;28;20105;-44
2021/06/28 06:10:26;;;;;;;2.08;1.88;;;22.90;66.60;;;;;;5032578;28;20009;-46
2021/06/28 06:12:52;;;;;;;2.88;2.08;;;22.90;66.60;;;;;;5032191;28;20021;-45
2021/06/28 06:15:17;;;;;;;2.25;2.05;;;22.90;66.80;;;;;;5032518;28;20040;-44
2021/06/28 06:17:44;;;;;;;2.22;2.03;;;22.90;66.60;;;;;;5032584;28;20464;-44
2021/06/28 06:20:10;;;;;;;3.05;1.98;;;22.90;66.40;;;;;;5032213;28;20417;-45
2021/06/28 06:22:35;;;;;;;2.42;1.80;;;22.90;66.40;;;;;;5032165;28;20025;-44
2021/06/28 06:25:02;;;;;;;1.70;1.60;;;22.90;66.50;;;;;;5035666;28;20032;-44
2021/06/28 06:27:28;;;;;;;2.67;1.80;;;22.90;66.50;;;;;;5036191;28;20022;-45
2021/06/28 06:29:53;;;;;;;1.90;1.80;;;22.90;66.40;;;;;;5036164;28;20048;-45
2021/06/28 06:32:19;;;;;;;2.60;2.38;;;23.00;66.50;;;;;;5036182;28;20083;-44
2021/06/28 06:34:44;;;;;;;4.00;2.78;;;23.00;66.70;;;;;;5034479;28;20028;-45
2021/06/28 06:37:10;;;;;;;6.00;3.10;;;23.00;67.10;;;;;;5036017;28;20095;-44
2021/06/28 06:39:36;;;;;;;3.90;2.60;;;23.00;67.40;;;;;;5035994;28;20018;-45
2021/06/28 06:42:02;;;;;;;3.45;2.50;;;23.00;67.20;;;;;;5035733;28;20029;-45
2021/06/28 06:44:27;;;;;;;5.95;3.15;;;23.00;67.10;;;;;;5035634;28;20377;-46
2021/06/28 06:46:53;;;;;;;5.00;2.95;;;23.10;67.60;;;;;;5034682;28;20029;-48
2021/06/28 06:49:19;;;;;;;3.95;3.20;;;23.00;67.40;;;;;;5033596;28;20064;-45
2021/06/28 06:51:45;;;;;;;5.97;3.10;;;23.10;67.70;;;;;;5033743;28;20112;-45
2021/06/28 06:54:10;;;;;;;4.28;3.47;;;23.10;67.80;;;;;;5033795;28;20045;-46
2021/06/28 06:56:37;;;;;;;6.20;3.63;;;23.00;68.00;;;;;;5034109;28;20075;-46
2021/06/28 06:59:03;;;;;;;4.60;3.67;;;23.20;68.20;;;;;;5033502;28;20030;-46
2021/06/28 07:01:31;;;;;;;4.22;3.83;;;23.10;84.60;;;;;;5033379;28;20033;-44
2021/06/28 07:03:58;;;;;;;7.25;3.53;;;23.10;68.70;;;;;;5035178;28;20099;-45
2021/06/28 07:06:23;;;;;;;4.82;3.92;;;23.10;68.40;;;;;;5034947;28;20141;-46
2021/06/28 07:08:49;;;;;;;5.45;3.47;;;23.10;68.50;;;;;;5035377;28;20246;-45
2021/06/28 07:11:14;;;;;;;3.60;3.25;;;23.10;68.40;;;;;;5035381;28;20109;-45
2021/06/28 07:14:00;;;;;;;4.20;3.78;;;23.10;68.50;;;;;;5034927;28;20025;-45
2021/06/28 07:16:32;;;;;;;4.80;3.60;;;23.10;68.50;;;;;;5035151;28;20049;-46
2021/06/28 07:19:03;;;;;;;5.57;4.35;;;23.10;68.50;;;;;;5035420;28;20108;-46
2021/06/28 07:21:29;;;;;;;13.38;4.03;;;23.10;68.80;;;;;;5034827;28;20510;-46
2021/06/28 07:23:56;;;;;;;6.07;4.40;;;23.10;68.90;;;;;;5035327;28;20033;-47
2021/06/28 07:26:25;;;;;;;6.68;4.32;;;23.10;69.00;;;;;;5035123;28;20021;-46
2021/06/28 07:28:54;;;;;;;4.25;3.85;;;23.20;69.00;;;;;;5033545;28;20025;-46
2021/06/28 07:31:20;;;;;;;4.60;4.03;;;23.10;68.90;;;;;;5034431;28;20026;-46
2021/06/28 07:33:46;;;;;;;6.97;4.50;;;23.10;69.00;;;;;;5032778;28;20392;-45
2021/06/28 07:36:12;;;;;;;5.70;4.32;;;23.10;69.00;;;;;;5033505;28;20337;-46
2021/06/28 07:38:39;;;;;;;5.05;3.47;;;23.10;69.10;;;;;;5033752;28;20028;-46
2021/06/28 07:41:05;;;;;;;4.20;3.80;;;23.10;69.00;;;;;;5034213;28;20025;-45
2021/06/28 07:43:30;;;;;;;5.03;3.53;;;23.10;68.80;;;;;;5034106;28;20051;-46
2021/06/28 07:45:56;;;;;;;6.18;3.70;;;23.20;68.80;;;;;;5034030;28;20025;-46
2021/06/28 07:48:22;;;;;;;5.95;3.70;;;23.20;68.80;;;;;;5034692;28;20032;-45
2021/06/28 07:50:48;;;;;;;4.43;3.55;;;23.20;69.00;;;;;;5034603;28;20022;-45
2021/06/28 07:53:15;;;;;;;4.85;3.40;;;23.20;69.00;;;;;;5034951;28;20437;-45
2021/06/28 07:55:42;;;;;;;3.67;3.38;;;23.20;69.10;;;;;;5034009;28;20020;-46
2021/06/28 07:58:08;;;;;;;5.88;3.88;;;23.20;69.20;;;;;;5034269;28;20038;-50
2021/06/28 08:00:34;;;;;;;6.05;4.30;;;23.20;69.10;;;;;;5034565;28;20063;-45
2021/06/28 08:03:00;;;;;;;6.03;3.60;;;23.20;69.10;;;;;;5033738;28;20102;-47
2021/06/28 08:05:26;;;;;;;4.10;3.70;;;23.10;69.00;;;;;;5033963;28;20025;-45
2021/06/28 08:07:52;;;;;;;4.75;3.92;;;23.20;69.00;;;;;;5034326;28;20151;-45
2021/06/28 08:10:18;;;;;;;4.43;3.53;;;23.30;69.00;;;;;;5034308;28;20013;-45
2021/06/28 08:12:45;;;;;;;6.30;3.67;;;23.30;69.00;;;;;;5034133;28;20044;-45
2021/06/28 08:15:15;;;;;;;3.95;3.58;;;23.30;68.90;;;;;;5034170;28;20022;-44
2021/06/28 08:17:41;;;;;;;5.22;3.47;;;23.30;68.80;;;;;;5034232;28;20060;-45
2021/06/28 08:20:08;;;;;;;5.07;3.50;;;23.30;68.70;;;;;;5033979;28;20014;-44
2021/06/28 08:22:35;;;;;;;3.45;3.15;;;23.20;68.60;;;;;;5033921;28;20049;-45
2021/06/28 08:25:01;;;;;;;6.85;3.78;;;23.30;68.70;;;;;;5033772;28;20077;-45
2021/06/28 08:27:26;;;;;;;3.95;3.55;;;23.30;68.60;;;;;;5033959;28;20061;-46
2021/06/28 08:29:52;;;;;;;5.38;3.47;;;23.30;68.60;;;;;;5033840;28;20112;-45
2021/06/28 08:32:18;;;;;;;8.18;3.58;;;23.30;68.50;;;;;;5033641;28;20499;-45
2021/06/28 08:34:44;;;;;;;6.75;3.50;;;23.30;68.40;;;;;;5033796;28;20025;-45
2021/06/28 08:37:10;;;;;;;7.85;3.53;;;23.30;68.30;;;;;;5032544;28;20018;-45
2021/06/28 08:39:35;;;;;;;8.10;4.00;;;23.40;68.30;;;;;;5033534;28;20101;-45
2021/06/28 08:42:04;;;;;;;3.17;2.88;;;23.30;68.50;;;;;;5033220;28;20411;-45
2021/06/28 08:44:31;;;;;;;4.13;3.72;;;23.30;68.90;;;;;;5033618;28;20022;-44
2021/06/28 08:46:58;;;;;;;6.38;4.00;;;23.30;69.50;;;;;;5032913;28;20017;-43
2021/06/28 08:49:23;;;;;;;8.77;3.85;;;23.30;70.20;;;;;;5033552;28;20028;-43
2021/06/28 08:51:50;;;;;;;4.30;3.90;;;23.30;70.40;;;;;;5033316;28;20442;-43
2021/06/28 08:54:16;;;;;;;5.32;3.80;;;23.30;70.60;;;;;;5033530;28;20031;-44
2021/06/28 08:56:44;;;;;;;4.05;3.65;;;23.30;71.10;;;;;;5033495;28;20029;-43
2021/06/28 08:59:10;;;;;;;4.28;3.80;;;23.20;71.20;;;;;;5033089;28;20464;-44
2021/06/28 09:01:38;;;;;;;5.05;3.72;;;23.20;71.50;;;;;;5033223;28;20087;-44
2021/06/28 09:04:05;;;;;;;5.47;3.22;;;23.30;71.50;;;;;;5032996;28;20049;-43
2021/06/28 09:06:31;;;;;;;4.28;3.88;;;23.20;71.70;;;;;;5033052;28;20029;-42
2021/06/28 09:09:06;;;;;;;4.78;3.67;;;23.20;72.50;;;;;;5033034;28;20045;-43
2021/06/28 09:11:41;;;;;;;4.30;3.80;;;23.20;72.30;;;;;;5033290;28;20056;-43
2021/06/28 09:14:08;;;;;;;3.78;3.47;;;23.10;72.20;;;;;;5033213;28;20053;-42
2021/06/28 09:16:37;;;;;;;13.07;4.18;;;23.20;72.20;;;;;;5032974;28;20025;-42
2021/06/28 09:19:13;;;;;;;5.82;3.33;;;23.20;72.50;;;;;;5033177;28;20033;-41
2021/06/28 09:21:40;;;;;;;4.95;3.88;;;23.30;72.60;;;;;;5032858;28;20503;-42
2021/06/28 09:24:23;;;;;;;4.80;3.17;;;23.30;72.90;;;;;;5033121;28;20052;-43
2021/06/28 09:26:49;;;;;;;5.15;3.33;;;23.30;73.30;;;;;;5032792;28;20542;-42
2021/06/28 09:29:15;;;;;;;4.13;3.60;;;23.30;73.20;;;;;;5033062;28;20026;-42
2021/06/28 09:31:46;;;;;;;5.75;3.70;;;23.30;73.50;;;;;;5033070;28;20033;-42
2021/06/28 09:34:24;;;;;;;4.88;3.30;;;23.30;73.60;;;;;;5031435;28;20125;-42
2021/06/28 09:36:57;;;;;;;5.53;3.13;;;23.30;73.80;;;;;;5032979;28;20084;-42
2021/06/28 09:39:30;;;;;;;3.45;3.15;;;23.30;74.10;;;;;;5031550;28;20021;-43
2021/06/28 09:42:08;;;;;;;4.60;3.70;;;23.30;74.40;;;;;;5031174;28;20469;-42
2021/06/28 09:44:36;;;;;;;5.90;3.20;;;23.30;74.60;;;;;;5032961;28;20033;-43
2021/06/28 09:47:15;;;;;;;10.07;4.03;;;23.30;74.90;;;;;;5032673;28;20663;-42
2021/06/28 09:50:05;;;;;;;7.30;3.80;;;23.30;75.20;;;;;;5032577;28;20036;-42
2021/06/28 09:52:34;;;;;;;6.30;3.70;;;23.30;75.60;;;;;;5032539;28;20493;-42
2021/06/28 09:55:24;;;;;;;5.18;3.70;;;23.30;76.00;;;;;;5032348;28;20030;-42
2021/06/28 09:58:05;;;;;;;;;;;23.30;76.10;;;;;;5034751;28;20572;-41
2021/06/28 10:00:31;;;;;;;7.15;3.95;;;23.30;76.00;;;;;;5036566;28;20386;-43
2021/06/28 10:02:57;;;;;;;4.00;3.60;;;23.30;76.20;;;;;;5036513;28;20471;-42
2021/06/28 10:05:26;;;;;;;3.78;3.38;;;23.10;75.90;;;;;;5036084;28;20167;-43
2021/06/28 10:07:54;;;;;;;6.88;3.95;;;23.30;77.20;;;;;;5036488;28;20033;-42
2021/06/28 10:10:28;;;;;;;4.45;3.20;;;23.30;77.00;;;;;;5036447;28;20444;-43
2021/06/28 10:12:54;;;;;;;3.97;3.33;;;;;;;;;;5036467;28;20072;-42
2021/06/28 10:15:41;;;;;;;3.95;3.50;;;23.20;76.50;;;;;;5035676;28;20052;-42
2021/06/28 10:18:09;;;;;;;3.65;3.28;;;23.20;76.80;;;;;;5036001;28;20024;-42
2021/06/28 10:20:39;;;;;;;3.80;3.40;;;23.30;76.60;;;;;;5036473;28;20025;-42
2021/06/28 10:23:05;;;;;;;3.30;3.00;;;23.30;76.50;;;;;;5036174;28;20040;-42
2021/06/28 10:25:31;;;;;;;3.75;2.83;;;23.20;76.90;;;;;;5036300;28;20101;-42
2021/06/28 10:27:59;;;;;;;3.38;2.78;;;23.20;76.10;;;;;;5036126;28;20101;-42
2021/06/28 10:30:27;;;;;;;3.05;2.75;;;23.20;76.00;;;;;;5035975;28;20103;-42
2021/06/28 10:32:59;;;;;;;3.55;2.70;;;23.30;75.90;;;;;;5036204;28;20021;-43
2021/06/28 10:35:32;;;;;;;3.10;2.80;;;23.20;75.70;;;;;;5035833;28;20033;-42
2021/06/28 10:38:03;;;;;;;3.00;2.80;;;23.30;75.70;;;;;;5035704;28;20026;-42
2021/06/28 10:40:44;;;;;;;2.85;2.50;;;23.30;75.50;;;;;;5036162;28;20030;-42
2021/06/28 10:43:26;;;;;;;4.13;2.65;;;23.30;75.50;;;;;;5034757;28;20037;-43
2021/06/28 10:45:52;;;;;;;2.83;2.60;;;23.30;75.30;;;;;;5035639;28;20491;-42
2021/06/28 10:48:21;;;;;;;3.38;3.00;;;23.30;75.20;;;;;;5035944;28;20160;-42
2021/06/28 10:51:06;;;;;;;2.78;2.58;;;23.30;75.20;;;;;;5035551;28;20032;-42
2021/06/28 10:53:32;;;;;;;3.28;2.70;;;23.50;75.20;;;;;;5035910;28;20021;-42
2021/06/28 10:56:26;;;;;;;2.47;2.38;;;23.30;75.10;;;;;;5035730;28;20036;-43
2021/06/28 10:59:04;;;;;;;2.67;2.47;;;23.30;75.00;;;;;;5035336;28;20041;-42
2021/06/28 11:01:39;;;;;;;2.70;2.50;;;23.30;75.00;;;;;;5035541;28;20380;-42
2021/06/28 11:04:25;;;;;;;2.95;2.50;;;23.30;74.90;;;;;;5033960;28;20467;-41
2021/06/28 11:07:01;;;;;;;2.40;2.08;;;23.30;74.80;;;;;;5035706;28;20052;-44
2021/06/28 11:09:37;;;;;;;2.33;2.17;;;23.30;74.70;;;;;;5034745;28;20037;-44
2021/06/28 11:12:23;;;;;;;2.67;2.30;;;23.30;74.60;;;;;;5034139;28;20024;-44
2021/06/28 11:14:53;;;;;;;2.58;2.38;;;23.30;74.60;;;;;;5035435;28;20041;-44
2021/06/28 11:17:38;;;;;;;2.00;1.90;;;23.40;74.50;;;;;;5035644;28;20439;-43
2021/06/28 11:20:06;;;;;;;2.45;2.25;;;23.50;74.50;;;;;;5035565;28;20116;-42
2021/06/28 11:22:42;;;;;;;2.30;2.20;;;23.40;74.40;;;;;;5035206;28;20057;-42
2021/06/28 11:25:08;;;;;;;2.50;2.30;;;23.40;74.30;;;;;;5035243;28;20066;-42
2021/06/28 11:27:40;;;;;;;2.28;2.13;;;23.40;74.20;;;;;;5035539;28;20026;-43
2021/06/28 11:30:15;;;;;;;2.20;2.10;;;23.40;74.00;;;;;;5035121;28;20031;-42
2021/06/28 11:33:17;;;;;;;2.50;2.38;;;23.40;74.00;;;;;;5034932;28;20037;-43
2021/06/28 11:35:50;;;;;;;2.15;2.05;;;23.40;73.90;;;;;;5034437;28;20402;-42
2021/06/28 11:38:23;;;;;;;2.00;1.90;;;23.50;73.80;;;;;;5035147;28;20279;-42
2021/06/28 11:41:09;;;;;;;2.00;1.90;;;23.40;73.70;;;;;;5035167;28;20072;-42
2021/06/28 11:43:52;;;;;;;2.50;1.98;;;23.50;73.60;;;;;;5024220;28;20389;-46
2021/06/28 11:46:48;;;;;;;2.20;2.10;;;23.50;73.60;;;;;;5034932;28;20047;-47
2021/06/28 11:49:25;;;;;;;1.95;1.85;;;23.50;73.50;;;;;;5034958;28;20075;-46
2021/06/28 11:51:52;;;;;;;1.92;1.83;;;23.60;73.50;;;;;;5034911;28;20025;-42
2021/06/28 11:54:20;;;;;;;2.22;1.85;;;23.50;73.40;;;;;;5034942;28;20267;-42
2021/06/28 11:56:50;;;;;;;1.95;1.85;;;23.50;73.30;;;;;;5034733;28;20021;-42
2021/06/28 11:59:18;;;;;;;1.55;1.45;;;23.50;73.20;;;;;;5034595;28;20033;-44
2021/06/28 12:01:52;;;;;;;1.95;1.80;;;23.50;73.10;;;;;;5034404;28;20026;-43
2021/06/28 12:04:24;;;;;;;1.80;1.70;;;23.50;73.00;;;;;;5034214;28;20049;-44
2021/06/28 12:06:52;;;;;;;1.63;1.52;;;23.50;73.00;;;;;;5034517;28;20030;-43
2021/06/28 12:09:19;;;;;;;1.90;1.80;;;23.50;72.80;;;;;;5034243;28;20029;-42
2021/06/28 12:11:52;;;;;;;1.92;1.83;;;23.50;72.70;;;;;;5034504;28;20018;-43
2021/06/28 12:14:38;;;;;;;1.50;1.40;;;23.50;72.70;;;;;;5034132;28;20088;-43
2021/06/28 12:17:20;;;;;;;1.92;1.83;;;23.50;72.60;;;;;;5034469;28;20040;-42
2021/06/28 12:19:52;;;;;;;1.60;1.50;;;23.50;72.40;;;;;;5033891;28;20023;-42
2021/06/28 12:22:23;;;;;;;1.92;1.83;;;23.50;72.30;;;;;;5032962;28;20035;-42
2021/06/28 12:24:55;;;;;;;1.60;1.50;;;23.60;72.20;;;;;;5034315;28;20135;-42
2021/06/28 12:27:26;;;;;;;1.77;1.67;;;23.60;72.10;;;;;;5034133;28;20018;-42
2021/06/28 12:29:52;;;;;;;1.70;1.60;;;23.60;72.00;;;;;;5034061;28;20027;-42
2021/06/28 12:32:31;;;;;;;1.65;1.55;;;23.60;71.90;;;;;;5034034;28;20036;-41
2021/06/28 12:34:59;;;;;;;1.50;1.40;;;23.60;71.70;;;;;;5033999;28;20075;-42
2021/06/28 12:37:34;;;;;;;1.90;1.80;;;23.60;71.60;;;;;;5033631;28;20100;-42
2021/06/28 12:40:32;;;;;;;1.77;1.67;;;23.60;71.40;;;;;;5033549;28;20025;-43
2021/06/28 12:42:59;;;;;;;1.40;1.30;;;23.60;71.30;;;;;;5033426;28;20033;-42
2021/06/28 12:45:33;;;;;;;1.42;1.33;;;23.60;71.30;;;;;;5033279;28;20029;-42
2021/06/28 12:48:02;;;;;;;1.83;1.73;;;23.60;71.10;;;;;;5033691;28;20052;-42
2021/06/28 12:50:30;;;;;;;1.40;1.30;;;23.60;71.00;;;;;;5033458;28;20123;-42
2021/06/28 12:52:56;;;;;;;1.30;1.30;;;23.70;70.90;;;;;;5033450;28;20069;-42
2021/06/28 12:55:32;;;;;;;1.40;1.30;;;23.70;70.80;;;;;;5033515;28;20025;-42